LFLX 181530Z AUTO 29010KT CAVOK 27/13 Q1015 NOSIG

ElémentsDécodage
LFLX Station météo située sur l'aérodrome de CHATEAUROUX Déols
181530Z émis le 18 du mois à 15h30 UTC
AUTO Bulletin édité par un automate
29010KT vent du 290°, 10 noeuds
CAVOK Ceiling And Visibility OK
- Visibilité de 10 Km ou plus
- Pas de nuage au-dessous de 1500m ou au-dessous de l'altitude minimale du secteur la plus élevée (si>1500m) et absence de CB
- pas de temps présent significatif
27/13 température 27°C, point de rosée 13°C
 soit une humidité relative de 42%
Q1015 la pression au niveau de la mer (QNH) est de 1015 hPa
NOSIG Pas de changement significatif prévu au cours des deux heures suivant l'heure de l'observation